createdAt,value
2022-12-05T00:01:34.678Z,18.48
2022-12-05T00:04:06.471Z,21.37
2022-12-05T00:06:35.374Z,19.20
2022-12-05T00:09:05.342Z,17.37
2022-12-05T00:11:36.270Z,14.05
2022-12-05T00:14:06.920Z,14.50
2022-12-05T00:16:38.526Z,12.95
2022-12-05T00:19:08.675Z,15.83
2022-12-05T00:21:37.335Z,18.15
2022-12-05T00:24:08.428Z,17.55
2022-12-05T00:26:36.191Z,15.28
2022-12-05T00:29:04.508Z,13.15
2022-12-05T00:31:32.431Z,20.37
2022-12-05T00:34:02.585Z,22.48
2022-12-05T00:36:33.618Z,21.30
2022-12-05T00:39:05.905Z,19.10
2022-12-05T00:41:33.667Z,22.22
2022-12-05T00:44:03.516Z,24.25
2022-12-05T00:46:33.454Z,19.67
2022-12-05T00:49:04.008Z,19.65
2022-12-05T00:51:39.114Z,16.02
2022-12-05T00:54:11.458Z,18.10
2022-12-05T00:56:39.810Z,15.40
2022-12-05T00:59:08.659Z,14.85
2022-12-05T01:01:40.645Z,14.80
2022-12-05T01:04:12.456Z,16.93
2022-12-05T01:06:41.453Z,21.20
2022-12-05T01:09:13.081Z,27.13
2022-12-05T01:11:41.826Z,27.93
2022-12-05T01:14:12.681Z,25.40
2022-12-05T01:16:43.492Z,24.98
2022-12-05T01:19:22.081Z,30.88
2022-12-05T01:21:50.615Z,28.77
2022-12-05T01:24:19.910Z,26.10
2022-12-05T01:26:48.284Z,28.35
2022-12-05T01:29:19.610Z,29.87
2022-12-05T01:31:48.131Z,30.97
2022-12-05T01:34:18.115Z,28.75
2022-12-05T01:36:45.912Z,23.12
2022-12-05T01:39:13.596Z,24.85
2022-12-05T01:41:49.347Z,22.22
2022-12-05T01:44:25.004Z,23.98
2022-12-05T01:46:53.991Z,21.82
2022-12-05T01:49:33.043Z,21.17
2022-12-05T01:52:20.895Z,21.50
2022-12-05T01:54:51.759Z,15.88
2022-12-05T01:57:19.426Z,16.35
2022-12-05T01:59:55.757Z,18.00
2022-12-05T02:02:24.013Z,17.05
2022-12-05T02:05:00.072Z,20.10
2022-12-05T02:07:28.518Z,21.40
2022-12-05T02:09:56.847Z,21.73
2022-12-05T02:12:25.447Z,30.32
2022-12-05T02:15:07.634Z,27.52
2022-12-05T02:18:14.482Z,27.27
2022-12-05T02:21:17.111Z,26.60
2022-12-05T02:24:16.646Z,26.45
2022-12-05T02:27:00.014Z,23.92
2022-12-05T02:30:00.924Z,19.73
2022-12-05T02:32:49.373Z,18.02
2022-12-05T02:35:42.203Z,16.50
2022-12-05T02:38:33.663Z,16.60
2022-12-05T02:41:06.679Z,14.35
2022-12-05T02:43:42.149Z,15.03
2022-12-05T02:46:14.633Z,12.00
2022-12-05T02:48:45.504Z,15.60
2022-12-05T02:51:17.866Z,18.12
2022-12-05T02:53:48.194Z,16.25
2022-12-05T02:56:16.333Z,16.48
2022-12-05T02:58:55.693Z,15.13
2022-12-05T03:01:27.676Z,15.93
2022-12-05T03:03:58.178Z,14.93
2022-12-05T03:06:42.595Z,14.23
2022-12-05T03:09:18.739Z,15.55
2022-12-05T03:11:54.844Z,18.85
2022-12-05T03:14:39.768Z,17.60
2022-12-05T03:17:11.843Z,16.52
2022-12-05T03:20:02.140Z,19.55
2022-12-05T03:22:49.806Z,15.93
2022-12-05T03:25:18.144Z,15.23
2022-12-05T03:28:07.885Z,15.72
2022-12-05T03:30:38.473Z,17.42
2022-12-05T03:33:26.492Z,16.30
2022-12-05T03:36:08.285Z,13.78
2022-12-05T03:38:57.841Z,15.58
2022-12-05T03:42:00.755Z,12.70
2022-12-05T03:44:51.829Z,12.88
2022-12-05T03:47:46.049Z,13.75
2022-12-05T03:50:27.229Z,12.37
2022-12-05T03:53:19.506Z,14.60
2022-12-05T03:55:38.840Z,12.95
2022-12-05T03:58:14.863Z,13.43
2022-12-05T04:00:46.081Z,16.50
2022-12-05T04:03:25.047Z,12.30
2022-12-05T04:05:59.610Z,13.35
2022-12-05T04:08:35.728Z,13.20
2022-12-05T04:11:07.594Z,13.05
2022-12-05T04:13:49.575Z,10.65
2022-12-05T04:16:47.508Z,9.80
2022-12-05T04:19:26.592Z,9.13
2022-12-05T04:21:56.959Z,10.25
2022-12-05T04:24:49.718Z,13.83
2022-12-05T04:27:38.980Z,11.00
2022-12-05T04:30:11.733Z,12.93
2022-12-05T04:33:04.766Z,9.93
2022-12-05T04:35:37.901Z,13.30
2022-12-05T04:38:16.902Z,11.75
2022-12-05T04:40:52.834Z,13.83
2022-12-05T04:43:22.925Z,13.18
2022-12-05T04:45:52.876Z,16.70
2022-12-05T04:48:24.035Z,17.17
2022-12-05T04:50:54.076Z,16.27
2022-12-05T04:53:26.138Z,16.70
2022-12-05T04:55:57.680Z,22.07
2022-12-05T04:58:27.903Z,19.42
2022-12-05T05:01:21.641Z,18.87
2022-12-05T05:04:00.789Z,19.10
2022-12-05T05:06:30.141Z,20.20
2022-12-05T05:08:58.579Z,20.72
2022-12-05T05:11:30.290Z,17.57
2022-12-05T05:13:59.627Z,19.90
2022-12-05T05:16:33.215Z,21.62
2022-12-05T05:19:03.698Z,19.07
2022-12-05T05:21:35.691Z,18.65
2022-12-05T05:24:04.758Z,21.25
2022-12-05T05:26:40.107Z,28.73
2022-12-05T05:29:09.369Z,31.60
2022-12-05T05:31:38.719Z,41.95
2022-12-05T05:34:09.853Z,43.65
2022-12-05T05:36:38.685Z,45.67
2022-12-05T05:39:11.730Z,48.98
2022-12-05T05:41:41.293Z,43.30
2022-12-05T05:44:09.291Z,47.40
2022-12-05T05:46:37.319Z,43.92
2022-12-05T05:49:07.135Z,38.65
2022-12-05T05:51:35.041Z,39.80
2022-12-05T05:54:03.011Z,33.75
2022-12-05T05:56:30.848Z,30.57
2022-12-05T05:59:02.826Z,34.00
2022-12-05T06:01:31.419Z,30.55
2022-12-05T06:03:59.249Z,33.13
2022-12-05T06:06:27.613Z,30.40
2022-12-05T06:08:55.290Z,34.98
2022-12-05T06:11:27.118Z,34.45
2022-12-05T06:13:57.188Z,33.60
2022-12-05T06:16:25.191Z,33.23
2022-12-05T06:18:54.079Z,31.25
2022-12-05T06:21:22.838Z,36.17
2022-12-05T06:23:50.954Z,24.47
2022-12-05T06:26:21.573Z,28.65
2022-12-05T06:28:49.266Z,24.10
2022-12-05T06:31:21.826Z,23.52
2022-12-05T06:33:49.611Z,22.60
2022-12-05T06:36:20.791Z,20.62
2022-12-05T06:38:48.798Z,30.77
2022-12-05T06:41:19.930Z,27.05
2022-12-05T06:43:48.965Z,33.33
2022-12-05T06:46:16.734Z,30.08
2022-12-05T06:48:44.808Z,27.65
2022-12-05T06:51:16.171Z,34.43
2022-12-05T06:53:44.652Z,31.85
2022-12-05T06:56:16.331Z,25.08
2022-12-05T06:58:47.633Z,38.40
2022-12-05T07:01:42.238Z,34.40
2022-12-05T07:04:19.764Z,36.38
2022-12-05T07:06:51.141Z,42.45
2022-12-05T07:09:24.972Z,28.98
2022-12-05T07:11:52.899Z,34.18
2022-12-05T07:16:51.175Z,40.17
2022-12-05T07:19:18.774Z,57.17
2022-12-05T07:21:46.574Z,59.85
2022-12-05T07:24:14.445Z,65.03
2022-12-05T07:26:42.200Z,53.87
2022-12-05T07:29:10.315Z,51.50
2022-12-05T07:31:38.265Z,48.92
2022-12-05T07:34:05.963Z,53.85
2022-12-05T07:36:34.663Z,57.62
2022-12-05T07:39:02.420Z,72.60
2022-12-05T07:41:33.221Z,78.45
2022-12-05T07:44:02.885Z,60.92
2022-12-05T07:46:30.622Z,60.92
2022-12-05T07:48:58.548Z,46.10
2022-12-05T07:51:26.293Z,45.78
2022-12-05T07:53:53.995Z,44.67
2022-12-05T07:56:22.392Z,40.60
2022-12-05T07:58:51.076Z,55.70
2022-12-05T08:01:22.924Z,66.97
2022-12-05T08:03:52.996Z,47.95
2022-12-05T08:06:24.593Z,73.52
2022-12-05T08:08:53.876Z,52.65
2022-12-05T08:11:30.982Z,50.75
2022-12-05T08:13:59.150Z,44.63
2022-12-05T08:16:30.017Z,43.87
2022-12-05T08:19:01.112Z,37.10
2022-12-05T08:21:29.308Z,32.98
2022-12-05T08:23:57.417Z,33.35
2022-12-05T08:26:29.701Z,36.55
2022-12-05T08:29:02.079Z,33.20
2022-12-05T08:31:34.175Z,40.05
2022-12-05T08:34:02.535Z,38.25
2022-12-05T08:36:31.345Z,28.25
2022-12-05T08:39:04.326Z,24.37
2022-12-05T08:41:33.459Z,45.03
2022-12-05T08:44:04.963Z,34.27
2022-12-05T08:46:35.692Z,32.60
2022-12-05T08:49:05.204Z,31.35
2022-12-05T08:51:33.355Z,33.08
2022-12-05T08:54:05.502Z,31.77
2022-12-05T08:56:33.740Z,34.73
2022-12-05T08:59:05.762Z,33.63
2022-12-05T09:01:32.951Z,67.78
2022-12-05T09:04:03.508Z,52.83
2022-12-05T09:06:32.609Z,56.95
2022-12-05T09:09:05.185Z,39.05
2022-12-05T09:11:37.270Z,50.98
2022-12-05T09:14:04.908Z,46.92
2022-12-05T09:16:39.253Z,33.40
2022-12-05T09:19:12.729Z,33.50
2022-12-05T09:21:41.633Z,27.25
2022-12-05T09:24:12.030Z,29.23
2022-12-05T09:26:41.052Z,24.43
2022-12-05T09:29:16.174Z,26.85
2022-12-05T09:31:41.809Z,42.78
2022-12-05T09:34:10.049Z,32.60
2022-12-05T09:36:38.031Z,47.95
2022-12-05T09:39:09.638Z,47.05
2022-12-05T09:42:19.370Z,28.07
2022-12-05T09:45:10.989Z,57.58
2022-12-05T09:48:09.496Z,30.08
2022-12-05T09:50:48.497Z,36.70
2022-12-05T09:53:30.471Z,43.42
2022-12-05T09:56:03.841Z,43.20
2022-12-05T09:58:54.189Z,34.40
2022-12-05T10:01:32.921Z,41.40
2022-12-05T10:04:34.583Z,57.67
2022-12-05T10:07:23.652Z,35.20
2022-12-05T10:09:59.739Z,44.08
2022-12-05T10:12:52.496Z,32.05
2022-12-05T10:15:54.427Z,38.80
2022-12-05T10:18:49.933Z,38.02
2022-12-05T10:22:01.400Z,33.85
2022-12-05T10:24:40.055Z,41.60
2022-12-05T10:27:12.432Z,44.70
2022-12-05T10:30:05.897Z,50.78
2022-12-05T10:32:39.167Z,46.30
2022-12-05T10:35:18.241Z,45.90
2022-12-05T10:37:53.206Z,44.13
2022-12-05T10:40:21.276Z,48.50
2022-12-05T10:42:50.643Z,38.67
2022-12-05T10:45:23.977Z,51.30
2022-12-05T10:47:57.209Z,39.33
2022-12-05T10:50:36.169Z,43.17
2022-12-05T10:53:06.488Z,27.73
2022-12-05T10:56:00.099Z,30.90
2022-12-05T10:58:24.157Z,27.50
2022-12-05T11:00:59.121Z,23.00
2022-12-05T11:03:41.924Z,22.93
2022-12-05T11:06:26.933Z,24.00
2022-12-05T11:09:14.706Z,15.00
2022-12-05T11:11:46.042Z,21.27
2022-12-05T11:14:26.456Z,19.92
2022-12-05T11:16:57.719Z,17.37
2022-12-05T11:19:33.347Z,14.95
2022-12-05T11:22:02.997Z,15.03
2022-12-05T11:24:34.630Z,14.23
2022-12-05T11:27:23.073Z,20.02
2022-12-05T11:30:15.984Z,19.00
2022-12-05T11:32:43.562Z,21.55
2022-12-05T11:35:26.025Z,23.55
2022-12-05T11:38:02.500Z,23.30
2022-12-05T11:40:54.074Z,22.22
2022-12-05T11:44:03.713Z,26.80
2022-12-05T11:46:45.598Z,24.25
2022-12-05T11:49:55.125Z,32.10
2022-12-05T11:53:12.992Z,51.58
2022-12-05T11:55:58.337Z,19.67
2022-12-05T11:58:54.423Z,28.05
2022-12-05T12:02:18.795Z,46.20
2022-12-05T12:05:13.000Z,36.17
2022-12-05T12:07:58.359Z,32.28
2022-12-05T12:10:57.482Z,36.77
2022-12-05T12:13:45.215Z,27.37
2022-12-05T12:16:36.668Z,53.50
2022-12-05T12:19:28.217Z,29.50
2022-12-05T12:22:30.445Z,30.80
2022-12-05T12:25:33.455Z,27.42
2022-12-05T12:28:21.816Z,31.75
2022-12-05T12:30:57.858Z,46.50
2022-12-05T12:33:46.213Z,50.38
2022-12-05T12:36:43.919Z,38.20
2022-12-05T12:39:22.585Z,62.58
2022-12-05T12:42:23.518Z,40.12
2022-12-05T12:45:26.154Z,32.03
2022-12-05T12:48:39.020Z,40.10
2022-12-05T12:51:11.755Z,35.95
2022-12-05T12:54:06.360Z,41.63
2022-12-05T12:57:10.649Z,57.90
2022-12-05T13:00:13.126Z,51.83
2022-12-05T13:02:51.064Z,54.55
2022-12-05T13:05:36.383Z,38.50
2022-12-05T13:08:35.153Z,34.43
2022-12-05T13:11:08.570Z,47.38
2022-12-05T13:13:43.793Z,31.48
2022-12-05T13:16:19.347Z,38.20
2022-12-05T13:18:47.111Z,38.55
2022-12-05T13:21:15.177Z,43.10
2022-12-05T13:23:49.916Z,31.85
2022-12-05T13:26:18.159Z,37.53
2022-12-05T13:28:56.965Z,34.00
2022-12-05T13:31:45.534Z,41.28
2022-12-05T13:34:40.389Z,55.58
2022-12-05T13:37:39.830Z,52.70
2022-12-05T13:40:51.260Z,66.82
2022-12-05T13:43:23.669Z,67.90
2022-12-05T13:46:09.126Z,57.70
2022-12-05T13:48:42.510Z,44.10
2022-12-05T13:51:16.150Z,49.00
2022-12-05T13:53:52.750Z,42.78
2022-12-05T13:56:28.105Z,41.45
2022-12-05T13:58:57.906Z,32.80
2022-12-05T14:01:50.356Z,28.83
2022-12-05T14:04:50.179Z,33.28
2022-12-05T14:07:41.408Z,28.17
2022-12-05T14:10:14.942Z,25.05
2022-12-05T14:12:53.794Z,32.28
2022-12-05T14:15:31.818Z,27.98
2022-12-05T14:18:30.368Z,25.23
2022-12-05T14:21:16.768Z,32.00
2022-12-05T14:24:25.326Z,34.45
2022-12-05T14:27:13.773Z,42.35
2022-12-05T14:30:30.143Z,41.33
2022-12-05T14:33:01.769Z,58.58
2022-12-05T14:35:45.670Z,47.85
2022-12-05T14:38:29.316Z,45.70
2022-12-05T14:41:13.074Z,39.50
2022-12-05T14:43:42.464Z,56.75
2022-12-05T14:46:25.534Z,53.23
2022-12-05T14:48:55.661Z,50.95
2022-12-05T14:51:38.095Z,57.27
2022-12-05T14:54:18.010Z,65.52
2022-12-05T14:57:08.727Z,69.32
2022-12-05T14:59:56.370Z,58.50
2022-12-05T15:02:38.411Z,63.10
2022-12-05T15:05:24.339Z,61.00
2022-12-05T15:07:56.905Z,62.60
2022-12-05T15:10:37.854Z,72.00
2022-12-05T15:13:20.314Z,75.42
2022-12-05T15:16:14.640Z,66.02
2022-12-05T15:18:57.235Z,63.00
2022-12-05T15:21:47.209Z,69.32
2022-12-05T15:24:21.213Z,77.80
2022-12-05T15:26:58.915Z,80.22
2022-12-05T15:29:32.001Z,97.50
2022-12-05T15:32:08.350Z,120.22
2022-12-05T15:34:43.486Z,115.67
2022-12-05T15:37:25.813Z,109.67
2022-12-05T15:40:13.739Z,106.35
2022-12-05T15:42:48.295Z,107.25
2022-12-05T15:45:29.044Z,83.90
2022-12-05T15:48:11.419Z,112.32
2022-12-05T15:50:47.444Z,139.52
2022-12-05T15:53:30.064Z,121.60
2022-12-05T15:56:23.810Z,121.95
2022-12-05T15:59:03.231Z,92.72
2022-12-05T16:01:37.310Z,76.65
2022-12-05T16:04:37.275Z,89.10
2022-12-05T16:07:09.513Z,100.87
2022-12-05T16:09:41.860Z,145.32
2022-12-05T16:12:27.512Z,111.37
2022-12-05T16:15:01.623Z,99.62
2022-12-05T16:17:40.703Z,84.10
2022-12-05T16:20:29.117Z,72.80
2022-12-05T16:23:05.909Z,65.90
2022-12-05T16:25:36.697Z,72.30
2022-12-05T16:28:16.182Z,80.00
2022-12-05T16:31:01.834Z,78.85
2022-12-05T16:33:32.068Z,92.17
2022-12-05T16:36:10.888Z,87.37
2022-12-05T16:38:40.483Z,89.72
2022-12-05T16:41:08.930Z,88.22
2022-12-05T16:43:42.208Z,84.80
2022-12-05T16:46:20.249Z,100.55
2022-12-05T16:49:10.419Z,96.53
2022-12-05T16:51:45.658Z,89.00
2022-12-05T16:54:15.048Z,78.87
2022-12-05T16:56:42.924Z,71.67
2022-12-05T16:59:16.258Z,61.02
2022-12-05T17:01:44.472Z,63.73
2022-12-05T17:04:12.460Z,58.02
2022-12-05T17:06:42.500Z,55.05
2022-12-05T17:09:10.508Z,75.52
2022-12-05T17:11:43.029Z,65.15
2022-12-05T17:14:16.276Z,59.48
2022-12-05T17:16:45.033Z,64.53
2022-12-05T17:19:13.737Z,61.15
2022-12-05T17:21:43.384Z,64.72
2022-12-05T17:24:18.759Z,69.20
2022-12-05T17:26:47.296Z,62.73
2022-12-05T17:29:14.970Z,59.63
2022-12-05T17:31:43.009Z,62.83
2022-12-05T17:34:18.186Z,64.92
2022-12-05T17:36:46.196Z,75.37
2022-12-05T17:39:13.983Z,78.20
2022-12-05T17:41:42.260Z,73.75
2022-12-05T17:44:14.238Z,74.30
2022-12-05T17:46:48.168Z,74.95
2022-12-05T17:49:25.634Z,78.00
2022-12-05T17:52:21.497Z,76.55
2022-12-05T17:54:39.625Z,76.82
2022-12-05T17:57:07.364Z,74.10
2022-12-05T17:59:35.654Z,72.55
2022-12-05T18:02:06.195Z,64.12
2022-12-05T18:04:34.396Z,67.53
2022-12-05T18:07:05.538Z,74.20
2022-12-05T18:09:35.384Z,75.95
2022-12-05T18:12:03.781Z,94.67
2022-12-05T18:14:33.478Z,101.65
2022-12-05T18:17:03.367Z,102.22
2022-12-05T18:19:31.428Z,90.07
2022-12-05T18:21:59.439Z,88.03
2022-12-05T18:24:28.375Z,83.80
2022-12-05T18:26:56.449Z,87.78
2022-12-05T18:29:24.982Z,97.02
2022-12-05T18:31:53.267Z,111.83
2022-12-05T18:34:21.576Z,112.72
2022-12-05T18:36:49.858Z,119.42
2022-12-05T18:39:18.307Z,120.87
2022-12-05T18:41:47.970Z,129.00
2022-12-05T18:44:19.141Z,122.92
2022-12-05T18:46:47.085Z,123.35
2022-12-05T18:49:15.229Z,115.97
2022-12-05T18:51:47.759Z,114.60
2022-12-05T18:54:17.658Z,114.32
2022-12-05T18:56:49.837Z,109.75
2022-12-05T18:59:20.627Z,107.03
2022-12-05T19:01:50.524Z,115.60
2022-12-05T19:04:21.058Z,108.97
2022-12-05T19:06:58.744Z,108.05
2022-12-05T19:09:30.445Z,107.65
2022-12-05T19:12:00.635Z,102.80
2022-12-05T19:14:32.099Z,100.38
2022-12-05T19:17:02.142Z,96.55
2022-12-05T19:19:30.689Z,94.40
2022-12-05T19:21:58.795Z,83.65
2022-12-05T19:24:27.890Z,84.90
2022-12-05T19:26:56.279Z,89.05
2022-12-05T19:29:24.337Z,78.07
2022-12-05T19:31:52.891Z,81.55
2022-12-05T19:34:22.014Z,79.12
2022-12-05T19:36:51.336Z,65.75
2022-12-05T19:39:26.722Z,69.87
2022-12-05T19:41:56.884Z,54.88
2022-12-05T19:44:26.625Z,54.35
2022-12-05T19:46:54.676Z,43.85
2022-12-05T19:49:23.178Z,47.50
2022-12-05T19:51:52.329Z,48.38
2022-12-05T19:54:22.094Z,48.63
2022-12-05T19:56:51.466Z,52.95
2022-12-05T19:59:19.656Z,46.90
2022-12-05T20:01:47.670Z,52.20
2022-12-05T20:04:16.917Z,54.38
2022-12-05T20:06:50.160Z,60.28
2022-12-05T20:09:21.748Z,56.28
2022-12-05T20:11:55.558Z,54.35
2022-12-05T20:14:25.124Z,58.55
2022-12-05T20:16:53.927Z,60.03
2022-12-05T20:19:23.729Z,62.75
2022-12-05T20:21:52.300Z,65.30
2022-12-05T20:24:20.236Z,63.38
2022-12-05T20:26:49.031Z,60.78
2022-12-05T20:29:16.670Z,58.17
2022-12-05T20:31:47.497Z,58.25
2022-12-05T20:34:17.202Z,58.90
2022-12-05T20:36:51.826Z,56.55
2022-12-05T20:39:20.144Z,46.88
2022-12-05T20:41:49.963Z,50.63
2022-12-05T20:44:20.928Z,48.48
2022-12-05T20:46:50.584Z,52.25
2022-12-05T20:49:20.128Z,48.08
2022-12-05T20:51:50.198Z,51.58
2022-12-05T20:54:27.782Z,48.92
2022-12-05T20:56:58.252Z,55.30
2022-12-05T20:59:25.910Z,51.08
2022-12-05T21:01:53.950Z,54.00
2022-12-05T21:04:21.835Z,51.30
2022-12-05T21:06:49.753Z,53.68
2022-12-05T21:09:25.191Z,64.05
2022-12-05T21:11:56.527Z,65.72
2022-12-05T21:14:24.809Z,63.55
2022-12-05T21:16:53.237Z,58.92
2022-12-05T21:19:21.137Z,53.92
2022-12-05T21:21:53.083Z,54.53
2022-12-05T21:24:22.783Z,59.45
2022-12-05T21:26:51.382Z,62.25
2022-12-05T21:29:19.466Z,72.70
2022-12-05T21:31:50.326Z,75.62
2022-12-05T21:34:21.062Z,67.40
2022-12-05T21:36:49.542Z,60.33
2022-12-05T21:39:17.338Z,68.37
2022-12-05T21:41:45.480Z,70.15
2022-12-05T21:44:16.654Z,58.23
2022-12-05T21:46:44.426Z,48.60
2022-12-05T21:49:12.695Z,52.23
2022-12-05T21:51:40.842Z,44.67
2022-12-05T21:54:08.910Z,43.58
2022-12-05T21:56:38.435Z,42.95
2022-12-05T21:59:06.200Z,43.87
2022-12-05T22:01:34.332Z,43.23
2022-12-05T22:04:02.927Z,43.68
2022-12-05T22:06:33.008Z,41.42
2022-12-05T22:09:01.092Z,48.17
2022-12-05T22:11:29.579Z,44.05
2022-12-05T22:13:57.822Z,47.70
2022-12-05T22:16:32.785Z,39.20
2022-12-05T22:18:57.008Z,40.50
2022-12-05T22:21:26.580Z,37.28
2022-12-05T22:23:54.427Z,35.30
2022-12-05T22:26:25.764Z,32.53
2022-12-05T22:28:56.713Z,35.00
2022-12-05T22:31:24.694Z,37.98
2022-12-05T22:33:52.640Z,33.18
2022-12-05T22:36:21.051Z,32.00
2022-12-05T22:38:49.421Z,35.88
2022-12-05T22:41:21.427Z,36.93
2022-12-05T22:43:56.335Z,36.30
2022-12-05T22:48:54.354Z,38.88
2022-12-05T22:51:23.145Z,38.78
2022-12-05T22:53:52.575Z,35.65
2022-12-05T22:56:22.982Z,34.48
2022-12-05T22:58:54.716Z,29.23
2022-12-05T23:01:32.265Z,28.92
2022-12-05T23:04:08.860Z,29.32
2022-12-05T23:06:38.348Z,31.45
2022-12-05T23:09:09.171Z,32.17
2022-12-05T23:11:37.809Z,29.07
2022-12-05T23:14:07.731Z,31.97
2022-12-05T23:16:36.940Z,30.05
2022-12-05T23:19:05.844Z,33.65
2022-12-05T23:21:39.225Z,32.88
2022-12-05T23:24:10.971Z,34.45
2022-12-05T23:26:44.945Z,33.92
2022-12-05T23:29:14.066Z,33.00
2022-12-05T23:31:43.206Z,35.13
2022-12-05T23:34:11.437Z,33.83
2022-12-05T23:36:39.540Z,33.63
2022-12-05T23:39:07.174Z,28.15
2022-12-05T23:41:34.925Z,36.15
2022-12-05T23:44:03.437Z,27.73
2022-12-05T23:46:31.255Z,26.35
2022-12-05T23:48:58.983Z,25.57
2022-12-05T23:51:29.769Z,21.17
2022-12-05T23:54:01.100Z,23.70
2022-12-05T23:56:32.858Z,24.27
2022-12-05T23:59:03.368Z,23.60
